Time;durP1;ratioP1;P1;durP2;ratioP2;P2;SDS_P1;SDS_P2;PMS_P1;PMS_P2;Temp;Humidity;BMP_temperature;BMP_pressure;BME280_temperature;BME280_humidity;BME280_pressure;Samples;Min_cycle;Max_cycle;Signal;HPM_P1;HPM_P2
2023/12/13 00:01:12;;;;;;;23.43;9.30;;;;;;;;;;5030424;28;20153;-64
2023/12/13 00:03:37;;;;;;;28.40;9.53;;;;;;;;;;5032994;28;20040;-65
2023/12/13 00:06:02;;;;;;;32.00;10.30;;;;;;;;;;5035213;28;20098;-66
2023/12/13 00:08:27;;;;;;;30.17;10.27;;;;;;;;;;5036276;28;20032;-64
2023/12/13 00:10:58;;;;;;;36.43;11.80;;;;;;;;;;5029562;28;20024;-64
2023/12/13 00:13:23;;;;;;;34.83;9.90;;;;;;;;;;5013861;28;20029;-65
2023/12/13 00:15:48;;;;;;;26.73;10.07;;;;;;;;;;5038872;28;20434;-65
2023/12/13 00:18:13;;;;;;;27.37;9.93;;;;;;;;;;5034917;28;20071;-65
2023/12/13 00:20:39;;;;;;;31.17;10.60;;;;;;;;;;5036985;28;20043;-64
2023/12/13 00:23:04;;;;;;;26.37;10.47;;;;;;;;;;5030037;28;20107;-64
2023/12/13 00:25:29;;;;;;;33.13;11.40;;;;;;;;;;5034439;28;20238;-65
2023/12/13 00:27:54;;;;;;;37.37;11.47;;;;;;;;;;5034423;28;20072;-65
2023/12/13 00:30:20;;;;;;;34.47;12.10;;;;;;;;;;5033982;28;20033;-65
2023/12/13 00:32:45;;;;;;;34.83;11.60;;;;;;;;;;5034067;28;20029;-65
2023/12/13 00:35:10;;;;;;;31.43;9.63;;;;;;;;;;5028399;28;20322;-64
2023/12/13 00:37:36;;;;;;;28.73;10.17;;;;;;;;;;5032932;28;20033;-63
2023/12/13 00:40:01;;;;;;;28.33;11.23;;;;;;;;;;5035569;28;20103;-65
2023/12/13 00:42:27;;;;;;;28.67;9.07;;;;;;;;;;5029106;28;20024;-64
2023/12/13 00:44:52;;;;;;;29.20;10.07;;;;;;;;;;5033910;28;20065;-65
2023/12/13 00:47:17;;;;;;;34.93;10.87;;;;;;;;;;5035886;28;20032;-65
2023/12/13 00:49:43;;;;;;;31.90;10.13;;;;;;;;;;5032463;28;20516;-64
2023/12/13 00:52:08;;;;;;;30.83;10.53;;;;;;;;;;5036509;28;20024;-64
2023/12/13 00:54:33;;;;;;;23.47;9.20;;;;;;;;;;5033098;28;20057;-66
2023/12/13 00:56:59;;;;;;;24.33;8.80;;;;;;;;;;5032564;28;20029;-65
2023/12/13 00:59:24;;;;;;;30.27;11.37;;;;;;;;;;5036003;28;20025;-65
2023/12/13 01:01:49;;;;;;;31.37;9.40;;;;;;;;;;5037009;28;20060;-65
2023/12/13 01:04:14;;;;;;;26.57;10.93;;;;;;;;;;5036826;28;20025;-64
2023/12/13 01:06:40;;;;;;;27.53;10.20;;;;;;;;;;5037742;28;20078;-64
2023/12/13 01:09:05;;;;;;;33.20;10.53;;;;;;;;;;5017687;28;20029;-64
2023/12/13 01:11:31;;;;;;;31.20;10.67;;;;;;;;;;5036646;28;20037;-64
2023/12/13 01:13:57;;;;;;;26.93;10.30;;;;;;;;;;5039323;28;20041;-64
2023/12/13 01:16:22;;;;;;;29.17;9.80;;;;;;;;;;5037350;28;20267;-66
2023/12/13 01:18:47;;;;;;;32.13;11.07;;;;;;;;;;5039375;28;20025;-64
2023/12/13 01:21:12;;;;;;;34.00;11.57;;;;;;;;;;5031854;28;20037;-64
2023/12/13 01:23:38;;;;;;;29.97;10.83;;;;;;;;;;5042806;28;20493;-64
2023/12/13 01:26:03;;;;;;;31.43;10.73;;;;;;;;;;5032102;28;20036;-65
2023/12/13 01:28:28;;;;;;;35.47;11.50;;;;;;;;;;5034149;28;20029;-64
2023/12/13 01:30:54;;;;;;;31.03;11.40;;;;;;;;;;5039503;28;20377;-65
2023/12/13 01:33:19;;;;;;;31.67;10.83;;;;;;;;;;5036029;28;20033;-66
2023/12/13 01:35:44;;;;;;;35.03;11.37;;;;;;;;;;5041013;28;20040;-65
2023/12/13 01:38:10;;;;;;;36.40;11.97;;;;;;;;;;5035467;28;20042;-65
2023/12/13 01:40:35;;;;;;;33.90;12.30;;;;;;;;;;5036244;28;20044;-64
2023/12/13 01:43:00;;;;;;;36.83;12.40;;;;;;;;;;5033400;28;20401;-65
2023/12/13 01:45:25;;;;;;;32.20;11.53;;;;;;;;;;5032624;28;20040;-64
2023/12/13 01:47:50;;;;;;;30.50;11.13;;;;;;;;;;5038124;28;20037;-65
2023/12/13 01:50:16;;;;;;;38.03;11.90;;;;;;;;;;5037663;28;20112;-63
2023/12/13 01:52:41;;;;;;;30.93;11.77;;;;;;;;;;5038689;28;20033;-65
2023/12/13 01:55:07;;;;;;;36.10;12.20;;;;;;;;;;5039900;28;20037;-65
2023/12/13 01:57:33;;;;;;;35.30;12.07;;;;;;;;;;5042148;28;20580;-64
2023/12/13 01:59:58;;;;;;;31.03;11.43;;;;;;;;;;5036367;28;20120;-64
2023/12/13 02:02:24;;;;;;;34.07;11.93;;;;;;;;;;5038343;28;20029;-65
2023/12/13 02:04:49;;;;;;;30.73;10.93;;;;;;;;;;5037418;28;20617;-64
2023/12/13 02:07:15;;;;;;;34.73;11.53;;;;;;;;;;5037392;28;20029;-65
2023/12/13 02:09:40;;;;;;;32.67;12.27;;;;;;;;;;5037962;28;20023;-64
2023/12/13 02:12:05;;;;;;;36.23;11.63;;;;;;;;;;5039403;28;20028;-65
2023/12/13 02:14:31;;;;;;;35.20;10.97;;;;;;;;;;5039932;28;20102;-65
2023/12/13 02:16:56;;;;;;;36.30;12.30;;;;;;;;;;5037761;28;20037;-64
2023/12/13 02:19:21;;;;;;;33.27;11.87;;;;;;;;;;5034355;28;20449;-65
2023/12/13 02:21:46;;;;;;;38.23;12.13;;;;;;;;;;5039241;28;20053;-64
2023/12/13 02:24:12;;;;;;;36.60;12.33;;;;;;;;;;5033367;28;20091;-65
2023/12/13 02:26:40;;;;;;;36.97;12.30;;;;;;;;;;5037831;28;20025;-65
2023/12/13 02:29:05;;;;;;;34.77;12.10;;;;;;;;;;5035081;28;20355;-65
2023/12/13 02:31:31;;;;;;;39.83;13.40;;;;;;;;;;5039930;28;20040;-64
2023/12/13 02:33:56;;;;;;;40.67;13.10;;;;;;;;;;5038457;28;20396;-67
2023/12/13 02:36:21;;;;;;;40.93;13.90;;;;;;;;;;5028905;28;20037;-67
2023/12/13 02:38:47;;;;;;;43.80;13.63;;;;;;;;;;5038449;28;20052;-67
2023/12/13 02:41:12;;;;;;;41.80;13.93;;;;;;;;;;5034414;28;20041;-67
2023/12/13 02:43:37;;;;;;;43.40;13.70;;;;;;;;;;5037881;28;20276;-67
2023/12/13 02:46:03;;;;;;;40.63;13.87;;;;;;;;;;5035959;28;20104;-65
2023/12/13 02:48:28;;;;;;;42.67;14.33;;;;;;;;;;5034218;28;20032;-65
2023/12/13 02:50:53;;;;;;;40.83;13.83;;;;;;;;;;5034096;28;20037;-64
2023/12/13 02:53:19;;;;;;;44.83;14.33;;;;;;;;;;5031593;28;20116;-67
2023/12/13 02:55:45;;;;;;;46.40;14.60;;;;;;;;;;5034608;28;20032;-67
2023/12/13 02:58:10;;;;;;;43.67;14.53;;;;;;;;;;5033923;28;20025;-67
2023/12/13 03:00:35;;;;;;;43.20;13.90;;;;;;;;;;5037473;28;20044;-67
2023/12/13 03:03:00;;;;;;;46.23;15.27;;;;;;;;;;5034483;28;20075;-68
2023/12/13 03:05:26;;;;;;;41.83;13.67;;;;;;;;;;5040440;28;20021;-67
2023/12/13 03:07:51;;;;;;;37.63;13.53;;;;;;;;;;5034420;28;20064;-67
2023/12/13 03:10:16;;;;;;;46.97;14.47;;;;;;;;;;5039265;28;20381;-67
2023/12/13 03:12:41;;;;;;;43.47;14.57;;;;;;;;;;5040095;28;20033;-67
2023/12/13 03:15:07;;;;;;;41.27;13.87;;;;;;;;;;5036032;28;20057;-67
2023/12/13 03:17:32;;;;;;;42.90;14.53;;;;;;;;;;5037986;28;20124;-67
2023/12/13 03:19:57;;;;;;;45.73;15.70;;;;;;;;;;5037645;28;20068;-67
2023/12/13 03:22:23;;;;;;;46.07;14.97;;;;;;;;;;5038057;28;20037;-67
2023/12/13 03:24:49;;;;;;;44.43;15.50;;;;;;;;;;5037452;28;20482;-67
2023/12/13 03:27:14;;;;;;;44.00;15.17;;;;;;;;;;5034893;28;20039;-67
2023/12/13 03:29:39;;;;;;;46.67;14.57;;;;;;;;;;5034937;28;20425;-67
2023/12/13 03:32:05;;;;;;;46.30;14.30;;;;;;;;;;5033513;28;20040;-67
2023/12/13 03:34:30;;;;;;;46.93;15.23;;;;;;;;;;5030540;28;20040;-67
2023/12/13 03:36:55;;;;;;;48.33;15.03;;;;;;;;;;5034565;28;20033;-67
2023/12/13 03:39:20;;;;;;;47.77;15.43;;;;;;;;;;5033506;28;20041;-67
2023/12/13 03:41:46;;;;;;;48.03;15.70;;;;;;;;;;5036578;28;21272;-64
2023/12/13 03:44:11;;;;;;;45.77;16.37;;;;;;;;;;5032223;28;20253;-64
2023/12/13 03:46:36;;;;;;;46.23;15.23;;;;;;;;;;5030963;28;20045;-64
2023/12/13 03:49:01;;;;;;;49.20;16.07;;;;;;;;;;5031134;28;20018;-67
2023/12/13 03:51:27;;;;;;;47.57;16.60;;;;;;;;;;5030685;28;20127;-63
2023/12/13 03:53:52;;;;;;;54.57;17.23;;;;;;;;;;5036176;28;20242;-64
2023/12/13 03:56:17;;;;;;;46.83;16.97;;;;;;;;;;5031870;28;20086;-64
2023/12/13 03:58:42;;;;;;;57.83;17.60;;;;;;;;;;5033216;28;20111;-65
2023/12/13 04:01:08;;;;;;;54.03;17.23;;;;;;;;;;5032287;28;20314;-64
2023/12/13 04:03:34;;;;;;;51.47;16.70;;;;;;;;;;5032805;28;20029;-66
2023/12/13 04:05:59;;;;;;;46.60;15.93;;;;;;;;;;5033729;28;20116;-64
2023/12/13 04:08:24;;;;;;;45.77;16.67;;;;;;;;;;5033169;28;20393;-64
2023/12/13 04:10:50;;;;;;;56.17;17.77;;;;;;;;;;5034054;28;20059;-63
2023/12/13 04:13:15;;;;;;;56.73;18.43;;;;;;;;;;5037274;28;20104;-65
2023/12/13 04:15:41;;;;;;;54.87;18.73;;;;;;;;;;5037257;28;20705;-65
2023/12/13 04:18:06;;;;;;;55.30;18.33;;;;;;;;;;5037188;28;20040;-65
2023/12/13 04:20:31;;;;;;;51.90;17.20;;;;;;;;;;5035968;28;20130;-66
2023/12/13 04:22:56;;;;;;;56.73;18.77;;;;;;;;;;5035202;28;20071;-65
2023/12/13 04:25:21;;;;;;;54.93;17.57;;;;;;;;;;5036125;28;20078;-66
2023/12/13 04:27:47;;;;;;;49.17;17.67;;;;;;;;;;5034075;28;20024;-66
2023/12/13 04:30:13;;;;;;;48.97;17.30;;;;;;;;;;5033768;28;20120;-66
2023/12/13 04:32:38;;;;;;;55.77;18.40;;;;;;;;;;5034423;28;20026;-65
2023/12/13 04:35:05;;;;;;;51.70;18.83;;;;;;;;;;5034628;28;20029;-65
2023/12/13 04:37:31;;;;;;;55.83;17.57;;;;;;;;;;5032407;28;20466;-64
2023/12/13 04:39:56;;;;;;;55.53;18.23;;;;;;;;;;5032617;28;20139;-65
2023/12/13 04:42:21;;;;;;;52.80;18.40;;;;;;;;;;5029303;28;20458;-66
2023/12/13 04:44:47;;;;;;;61.60;19.07;;;;;;;;;;5030261;28;20040;-65
2023/12/13 04:47:12;;;;;;;58.67;19.20;;;;;;;;;;5032562;28;20060;-66
2023/12/13 04:49:37;;;;;;;54.40;18.23;;;;;;;;;;5036325;28;20036;-66
2023/12/13 04:52:03;;;;;;;57.33;17.43;;;;;;;;;;5031220;28;20041;-64
2023/12/13 04:54:29;;;;;;;55.90;18.43;;;;;;;;;;5025645;28;20038;-65
2023/12/13 04:56:54;;;;;;;55.97;18.60;;;;;;;;;;5025507;28;20033;-65
2023/12/13 04:59:19;;;;;;;55.00;18.53;;;;;;;;;;5030292;28;20072;-65
2023/12/13 05:01:45;;;;;;;57.83;18.73;;;;;;;;;;5036136;28;20511;-65
2023/12/13 05:04:10;;;;;;;56.00;17.53;;;;;;;;;;5031956;28;20029;-64
2023/12/13 05:06:35;;;;;;;57.93;18.67;;;;;;;;;;5031790;28;20033;-66
2023/12/13 05:09:00;;;;;;;59.60;19.90;;;;;;;;;;5032510;28;20026;-65
2023/12/13 05:11:26;;;;;;;57.80;19.17;;;;;;;;;;5038718;28;20021;-64
2023/12/13 05:13:51;;;;;;;57.70;19.10;;;;;;;;;;5033425;28;20029;-64
2023/12/13 05:16:18;;;;;;;57.60;19.33;;;;;;;;;;5031879;28;20041;-63
2023/12/13 05:18:43;;;;;;;59.30;18.77;;;;;;;;;;5035178;28;20021;-64
2023/12/13 05:21:08;;;;;;;55.60;18.87;;;;;;;;;;5036497;28;20114;-64
2023/12/13 05:23:33;;;;;;;51.33;17.43;;;;;;;;;;5037634;28;20033;-64
2023/12/13 05:25:59;;;;;;;55.20;18.70;;;;;;;;;;5019137;28;20343;-64
2023/12/13 05:28:24;;;;;;;56.33;20.63;;;;;;;;;;5034965;28;20056;-63
2023/12/13 05:30:49;;;;;;;63.53;20.43;;;;;;;;;;5034988;28;20033;-63
2023/12/13 05:33:15;;;;;;;57.83;18.87;;;;;;;;;;5033602;28;20038;-64
2023/12/13 05:35:40;;;;;;;58.47;18.73;;;;;;;;;;5032246;28;20029;-63
2023/12/13 05:38:05;;;;;;;52.57;18.17;;;;;;;;;;5034139;28;20337;-64
2023/12/13 05:40:33;;;;;;;55.37;19.67;;;;;;;;;;5033889;28;20037;-63
2023/12/13 05:42:59;;;;;;;56.97;18.97;;;;;;;;;;5031887;28;20494;-63
2023/12/13 05:45:25;;;;;;;56.83;18.80;;;;;;;;;;5030647;28;20049;-65
2023/12/13 05:47:50;;;;;;;59.00;17.93;;;;;;;;;;5032583;28;20060;-66
2023/12/13 05:50:18;;;;;;;60.57;18.77;;;;;;;;;;5033121;28;20025;-65
2023/12/13 05:52:44;;;;;;;62.37;19.83;;;;;;;;;;5032782;28;20581;-66
2023/12/13 05:55:09;;;;;;;64.07;20.03;;;;;;;;;;5030295;28;20029;-66
2023/12/13 05:57:34;;;;;;;67.03;20.77;;;;;;;;;;5040672;28;20457;-64
2023/12/13 06:00:00;;;;;;;61.83;20.43;;;;;;;;;;5036145;28;20039;-63
2023/12/13 06:02:25;;;;;;;57.73;20.40;;;;;;;;;;5037252;28;20026;-62
2023/12/13 06:04:53;;;;;;;67.57;20.63;;;;;;;;;;5029961;28;20029;-64
2023/12/13 06:07:18;;;;;;;58.97;20.57;;;;;;;;;;5038899;28;20046;-63
2023/12/13 06:09:44;;;;;;;63.27;20.00;;;;;;;;;;5037743;28;20642;-63
2023/12/13 06:12:10;;;;;;;65.80;20.07;;;;;;;;;;5036629;28;20034;-65
2023/12/13 06:14:35;;;;;;;69.73;20.63;;;;;;;;;;5036456;28;20579;-65
2023/12/13 06:17:02;;;;;;;73.67;20.67;;;;;;;;;;5036447;28;20099;-64
2023/12/13 06:19:29;;;;;;;66.93;21.30;;;;;;;;;;5038859;28;20029;-65
2023/12/13 06:21:55;;;;;;;65.93;19.07;;;;;;;;;;5037790;28;20129;-65
2023/12/13 06:24:20;;;;;;;66.93;19.77;;;;;;;;;;5036874;28;20485;-64
2023/12/13 06:26:45;;;;;;;66.20;20.17;;;;;;;;;;5036884;28;20021;-64
2023/12/13 06:29:11;;;;;;;65.83;19.80;;;;;;;;;;5037035;28;20148;-67
2023/12/13 06:31:36;;;;;;;66.50;20.60;;;;;;;;;;5037313;28;20462;-66
2023/12/13 06:34:02;;;;;;;60.17;19.50;;;;;;;;;;5033361;28;20036;-67
2023/12/13 06:36:27;;;;;;;74.47;20.27;;;;;;;;;;5034574;28;20037;-67
2023/12/13 06:38:52;;;;;;;72.07;19.90;;;;;;;;;;5034429;28;20030;-67
2023/12/13 06:41:17;;;;;;;87.13;22.50;;;;;;;;;;5035261;28;20036;-67
2023/12/13 06:43:43;;;;;;;82.60;21.13;;;;;;;;;;5036461;28;20393;-66
2023/12/13 06:46:08;;;;;;;77.13;21.67;;;;;;;;;;5037626;28;20040;-67
2023/12/13 06:48:33;;;;;;;74.60;21.30;;;;;;;;;;5036358;28;20079;-65
2023/12/13 06:50:58;;;;;;;89.40;22.40;;;;;;;;;;5035202;28;20101;-67
2023/12/13 06:53:24;;;;;;;125.57;22.37;;;;;;;;;;5038291;28;20498;-67
2023/12/13 06:55:49;;;;;;;82.07;21.07;;;;;;;;;;5033697;28;20037;-66
2023/12/13 06:58:14;;;;;;;77.27;20.60;;;;;;;;;;5033930;28;20501;-67
2023/12/13 07:00:40;;;;;;;69.10;21.13;;;;;;;;;;5032931;28;20053;-67
2023/12/13 07:03:05;;;;;;;76.67;20.80;;;;;;;;;;5038959;28;20033;-66
2023/12/13 07:05:30;;;;;;;71.00;21.00;;;;;;;;;;5036241;28;20036;-66
2023/12/13 07:07:56;;;;;;;66.93;19.57;;;;;;;;;;5037905;28;20063;-67
2023/12/13 07:10:26;;;;;;;69.13;20.37;;;;;;;;;;5032685;28;20207;-67
2023/12/13 07:12:51;;;;;;;67.00;19.23;;;;;;;;;;5031929;28;20037;-66
2023/12/13 07:15:17;;;;;;;69.90;20.60;;;;;;;;;;5031074;28;20643;-66
2023/12/13 07:17:42;;;;;;;62.50;20.73;;;;;;;;;;5038266;28;20045;-67
2023/12/13 07:20:08;;;;;;;70.97;20.03;;;;;;;;;;5037205;28;20397;-67
2023/12/13 07:22:33;;;;;;;64.37;20.27;;;;;;;;;;5032966;28;20029;-65
2023/12/13 07:24:58;;;;;;;65.97;20.03;;;;;;;;;;5035010;28;20025;-65
2023/12/13 07:27:24;;;;;;;65.67;21.00;;;;;;;;;;5033943;28;20342;-66
2023/12/13 07:29:49;;;;;;;70.20;20.67;;;;;;;;;;5035520;28;20371;-66
2023/12/13 07:32:14;;;;;;;61.53;21.27;;;;;;;;;;5036099;28;20037;-65
2023/12/13 07:34:41;;;;;;;65.47;20.63;;;;;;;;;;5032577;28;20568;-65
2023/12/13 07:37:07;;;;;;;65.97;21.10;;;;;;;;;;5037239;28;20615;-65
2023/12/13 07:39:35;;;;;;;65.13;21.07;;;;;;;;;;5035460;28;20032;-64
2023/12/13 07:42:00;;;;;;;68.13;22.30;;;;;;;;;;5034846;28;20063;-66
2023/12/13 07:44:26;;;;;;;62.07;21.30;;;;;;;;;;5033424;28;20405;-66
2023/12/13 07:46:51;;;;;;;68.77;22.00;;;;;;;;;;5033217;28;20041;-64
2023/12/13 07:49:16;;;;;;;70.97;23.37;;;;;;;;;;5033386;28;20056;-65
2023/12/13 07:51:42;;;;;;;67.40;22.87;;;;;;;;;;5037268;28;20029;-65
2023/12/13 07:54:07;;;;;;;65.80;22.03;;;;;;;;;;5032927;28;20029;-66
2023/12/13 07:56:34;;;;;;;66.50;22.13;;;;;;;;;;5036693;28;20053;-66
2023/12/13 07:58:59;;;;;;;68.30;21.97;;;;;;;;;;5032228;28;20477;-65
2023/12/13 08:01:24;;;;;;;67.80;22.27;;;;;;;;;;5034655;28;20076;-65
2023/12/13 08:03:49;;;;;;;67.67;22.07;;;;;;;;;;5035748;28;20041;-66
2023/12/13 08:06:18;;;;;;;66.00;22.03;;;;;;;;;;5036204;28;20474;-64
2023/12/13 08:08:43;;;;;;;67.47;21.17;;;;;;;;;;5031525;28;20030;-65
2023/12/13 08:11:09;;;;;;;66.17;21.63;;;;;;;;;;5028671;28;20033;-66
2023/12/13 08:13:34;;;;;;;64.73;20.87;;;;;;;;;;5034958;28;20045;-64
2023/12/13 08:15:59;;;;;;;66.70;21.70;;;;;;;;;;5035762;28;20411;-65
2023/12/13 08:18:25;;;;;;;69.23;21.93;;;;;;;;;;5034598;28;20045;-65
2023/12/13 08:20:50;;;;;;;65.47;21.50;;;;;;;;;;5030297;28;20108;-65
2023/12/13 08:23:15;;;;;;;63.57;21.43;;;;;;;;;;5031500;28;20044;-67
2023/12/13 08:25:41;;;;;;;63.17;20.90;;;;;;;;;;5038740;28;20139;-66
2023/12/13 08:28:06;;;;;;;62.53;22.07;;;;;;;;;;5035167;28;20075;-66
2023/12/13 08:30:32;;;;;;;59.43;20.60;;;;;;;;;;5033361;28;20277;-65
2023/12/13 08:32:57;;;;;;;58.03;20.73;;;;;;;;;;5029639;28;20064;-65
2023/12/13 08:35:22;;;;;;;57.53;19.77;;;;;;;;;;5031994;28;20179;-65
2023/12/13 08:37:48;;;;;;;61.70;22.30;;;;;;;;;;5035445;28;20033;-66
2023/12/13 08:40:14;;;;;;;60.00;20.00;;;;;;;;;;5032977;28;20139;-65
2023/12/13 08:42:39;;;;;;;58.00;20.30;;;;;;;;;;5031338;28;20037;-65
2023/12/13 08:45:05;;;;;;;57.17;20.13;;;;;;;;;;5033881;28;20572;-66
2023/12/13 08:47:30;;;;;;;55.73;19.20;;;;;;;;;;5035789;28;20037;-64
2023/12/13 08:49:55;;;;;;;67.23;20.37;;;;;;;;;;5032780;28;21644;-65
2023/12/13 08:52:21;;;;;;;56.43;19.97;;;;;;;;;;5029446;28;20037;-64
2023/12/13 08:54:46;;;;;;;59.47;20.47;;;;;;;;;;5032856;28;20021;-65
2023/12/13 08:57:11;;;;;;;61.23;20.00;;;;;;;;;;5031432;28;20037;-66
2023/12/13 08:59:36;;;;;;;57.70;20.07;;;;;;;;;;5035544;28;20034;-65
2023/12/13 09:02:02;;;;;;;56.83;20.63;;;;;;;;;;5035673;28;20036;-65
2023/12/13 09:04:27;;;;;;;52.47;19.13;;;;;;;;;;5031064;28;20270;-64
2023/12/13 09:06:52;;;;;;;58.97;19.73;;;;;;;;;;5031683;28;20025;-66
2023/12/13 09:09:18;;;;;;;52.53;19.50;;;;;;;;;;5029003;28;20087;-65
2023/12/13 09:11:44;;;;;;;53.07;19.53;;;;;;;;;;5032379;28;20448;-65
2023/12/13 09:14:09;;;;;;;53.30;19.57;;;;;;;;;;5033691;28;20125;-65
2023/12/13 09:16:35;;;;;;;51.27;19.37;;;;;;;;;;5031860;28;20229;-65
2023/12/13 09:19:00;;;;;;;47.03;19.07;;;;;;;;;;5034519;28;20060;-66
2023/12/13 09:21:25;;;;;;;53.97;18.83;;;;;;;;;;5033700;28;20060;-65
2023/12/13 09:23:51;;;;;;;53.77;19.17;;;;;;;;;;5029980;28;20048;-65
2023/12/13 09:26:16;;;;;;;55.17;18.70;;;;;;;;;;5032835;28;20120;-65
2023/12/13 09:28:41;;;;;;;53.63;20.07;;;;;;;;;;5031912;28;20037;-65
2023/12/13 09:31:07;;;;;;;51.27;19.37;;;;;;;;;;5036238;28;20044;-65
2023/12/13 09:33:33;;;;;;;51.43;19.03;;;;;;;;;;5022966;28;20079;-65
2023/12/13 09:35:58;;;;;;;45.70;18.13;;;;;;;;;;5038248;28;20045;-64
2023/12/13 09:38:23;;;;;;;46.40;18.53;;;;;;;;;;5035308;28;20091;-64
2023/12/13 09:40:48;;;;;;;48.87;17.37;;;;;;;;;;5032587;28;20057;-65
2023/12/13 09:43:14;;;;;;;46.33;19.07;;;;;;;;;;5028475;28;20428;-67
2023/12/13 09:45:40;;;;;;;46.33;18.03;;;;;;;;;;5038300;28;20029;-67
2023/12/13 09:48:07;;;;;;;46.03;17.67;;;;;;;;;;5033779;28;20064;-67
2023/12/13 09:50:34;;;;;;;41.97;17.83;;;;;;;;;;5033804;28;20033;-67
2023/12/13 09:53:00;;;;;;;44.17;17.73;;;;;;;;;;5036183;28;20037;-67
2023/12/13 09:55:25;;;;;;;41.40;17.13;;;;;;;;;;5034359;28;20500;-67
2023/12/13 09:57:50;;;;;;;40.57;16.97;;;;;;;;;;5037576;28;20501;-67
2023/12/13 10:00:16;;;;;;;36.23;16.03;;;;;;;;;;5034407;28;20041;-67
2023/12/13 10:02:41;;;;;;;42.93;16.47;;;;;;;;;;5034958;28;20405;-67
2023/12/13 10:05:10;;;;;;;31.53;14.17;;;;;;;;;;5034316;28;20044;-67
2023/12/13 10:07:35;;;;;;;34.63;14.87;;;;;;;;;;5033202;28;20116;-67
2023/12/13 10:10:01;;;;;;;32.50;14.53;;;;;;;;;;5037903;28;20120;-67
2023/12/13 10:12:26;;;;;;;33.30;14.60;;;;;;;;;;5035000;28;20418;-67
2023/12/13 10:14:51;;;;;;;31.60;14.37;;;;;;;;;;5037465;28;20084;-67
2023/12/13 10:17:21;;;;;;;36.37;14.30;;;;;;;;;;5033485;28;20503;-67
2023/12/13 10:19:47;;;;;;;31.13;13.70;;;;;;;;;;5036044;28;20600;-67
2023/12/13 10:22:12;;;;;;;27.40;13.13;;;;;;;;;;5035375;28;20116;-67
2023/12/13 10:24:37;;;;;;;29.47;13.57;;;;;;;;;;5035397;28;20032;-67
2023/12/13 10:27:03;;;;;;;28.40;13.63;;;;;;;;;;5034211;28;20524;-65
2023/12/13 10:29:30;;;;;;;27.77;12.57;;;;;;;;;;5037241;28;20029;-65
2023/12/13 10:31:56;;;;;;;25.20;12.07;;;;;;;;;;5038426;28;20394;-67
2023/12/13 10:34:21;;;;;;;25.93;12.17;;;;;;;;;;5033383;28;20029;-67
2023/12/13 10:36:48;;;;;;;22.83;11.87;;;;;;;;;;5034819;28;20033;-66
2023/12/13 10:39:15;;;;;;;26.60;11.60;;;;;;;;;;5032640;28;20063;-66
2023/12/13 10:41:44;;;;;;;25.10;12.73;;;;;;;;;;5036665;28;20501;-67
2023/12/13 10:44:10;;;;;;;24.17;12.70;;;;;;;;;;5038083;28;20047;-67
2023/12/13 10:46:35;;;;;;;28.03;12.60;;;;;;;;;;5034822;28;20025;-67
2023/12/13 10:49:03;;;;;;;28.60;12.47;;;;;;;;;;5033299;28;20309;-67
2023/12/13 10:51:29;;;;;;;28.67;13.53;;;;;;;;;;5035069;28;20060;-67
2023/12/13 10:53:55;;;;;;;24.33;12.33;;;;;;;;;;5034052;28;20473;-64
2023/12/13 10:56:21;;;;;;;26.60;12.50;;;;;;;;;;5035129;28;20037;-64
2023/12/13 10:58:47;;;;;;;24.20;12.97;;;;;;;;;;5035389;28;20032;-64
2023/12/13 11:01:12;;;;;;;21.73;11.97;;;;;;;;;;5036118;28;20493;-65
2023/12/13 11:03:45;;;;;;;23.33;11.77;;;;;;;;;;5034044;28;20044;-64
2023/12/13 11:06:16;;;;;;;26.30;12.90;;;;;;;;;;5033922;28;20035;-64
2023/12/13 11:08:43;;;;;;;28.60;13.80;;;;;;;;;;5033189;28;20478;-63
2023/12/13 11:11:10;;;;;;;25.23;13.20;;;;;;;;;;5031986;28;20597;-63
2023/12/13 11:13:48;;;;;;;27.53;14.23;;;;;;;;;;5035029;28;20028;-64
2023/12/13 11:16:23;;;;;;;29.00;14.47;;;;;;;;;;5033850;28;20133;-65
2023/12/13 11:18:52;;;;;;;27.23;14.70;;;;;;;;;;5034415;28;20045;-64
2023/12/13 11:21:31;;;;;;;25.73;13.67;;;;;;;;;;5038836;28;20373;-64
2023/12/13 11:24:19;;;;;;;28.53;13.97;;;;;;;;;;5033615;28;20522;-64
2023/12/13 11:26:51;;;;;;;31.73;14.67;;;;;;;;;;5035736;28;20025;-64
2023/12/13 11:29:18;;;;;;;29.20;14.33;;;;;;;;;;5034521;28;20037;-64
2023/12/13 11:32:04;;;;;;;29.87;15.53;;;;;;;;;;5037476;28;20108;-63
2023/12/13 11:34:33;;;;;;;29.60;14.63;;;;;;;;;;5030945;28;20505;-64
2023/12/13 11:37:05;;;;;;;28.17;14.63;;;;;;;;;;5036862;28;20488;-65
2023/12/13 11:39:31;;;;;;;25.03;14.67;;;;;;;;;;5034265;28;20600;-65
2023/12/13 11:42:04;;;;;;;28.67;14.97;;;;;;;;;;5037591;28;20124;-64
2023/12/13 11:44:31;;;;;;;27.53;14.90;;;;;;;;;;5035753;28;20466;-66
2023/12/13 11:46:58;;;;;;;27.30;14.77;;;;;;;;;;5030930;28;20463;-65
2023/12/13 11:49:25;;;;;;;25.60;14.03;;;;;;;;;;5030881;28;20030;-66
2023/12/13 11:51:51;;;;;;;26.13;14.57;;;;;;;;;;5033474;28;20585;-64
2023/12/13 11:54:17;;;;;;;26.33;14.77;;;;;;;;;;5034109;28;20112;-70
2023/12/13 11:56:42;;;;;;;29.33;14.50;;;;;;;;;;5033160;28;20033;-68
2023/12/13 11:59:07;;;;;;;28.77;14.47;;;;;;;;;;5028540;28;20132;-70
2023/12/13 12:01:33;;;;;;;25.10;14.23;;;;;;;;;;5035568;28;20036;-68
2023/12/13 12:03:58;;;;;;;25.77;14.40;;;;;;;;;;5032613;28;20147;-71
2023/12/13 12:06:23;;;;;;;26.13;13.87;;;;;;;;;;5029992;28;20036;-70
2023/12/13 12:08:49;;;;;;;27.20;13.80;;;;;;;;;;5033299;28;20041;-69
2023/12/13 12:11:14;;;;;;;30.03;14.93;;;;;;;;;;5038071;28;20036;-70
2023/12/13 12:13:41;;;;;;;27.70;13.70;;;;;;;;;;5033671;28;20169;-70
2023/12/13 12:16:07;;;;;;;27.83;13.27;;;;;;;;;;5032001;28;20110;-70
2023/12/13 12:18:32;;;;;;;26.17;12.47;;;;;;;;;;5032275;28;20401;-69
2023/12/13 12:20:58;;;;;;;25.63;14.23;;;;;;;;;;5035554;28;20035;-71
2023/12/13 12:23:25;;;;;;;22.53;12.20;;;;;;;;;;5032961;28;20612;-68
2023/12/13 12:25:53;;;;;;;23.80;12.53;;;;;;;;;;5034441;28;20485;-69
2023/12/13 12:28:18;;;;;;;25.60;12.40;;;;;;;;;;5031909;28;20525;-68
2023/12/13 12:30:45;;;;;;;24.13;12.57;;;;;;;;;;5037412;28;20025;-68
2023/12/13 12:33:10;;;;;;;24.60;12.30;;;;;;;;;;5029603;28;20526;-69
2023/12/13 12:35:35;;;;;;;25.13;13.17;;;;;;;;;;5032666;28;20068;-68
2023/12/13 12:38:08;;;;;;;25.10;14.00;;;;;;;;;;5032981;28;20660;-72
2023/12/13 12:40:34;;;;;;;26.73;13.80;;;;;;;;;;5031968;28;20497;-67
2023/12/13 12:42:59;;;;;;;26.00;13.63;;;;;;;;;;5032462;28;20033;-67
2023/12/13 12:45:24;;;;;;;27.93;14.73;;;;;;;;;;5028071;28;20083;-69
2023/12/13 12:47:50;;;;;;;30.67;14.77;;;;;;;;;;5031959;28;20087;-67
2023/12/13 12:50:15;;;;;;;30.83;14.93;;;;;;;;;;5032716;28;20105;-69
2023/12/13 12:52:42;;;;;;;35.87;15.60;;;;;;;;;;5034223;28;20025;-68
2023/12/13 12:55:07;;;;;;;35.70;16.23;;;;;;;;;;5029224;28;20113;-69
2023/12/13 12:57:32;;;;;;;35.70;16.33;;;;;;;;;;5029489;28;20525;-67
2023/12/13 12:59:57;;;;;;;30.97;13.33;;;;;;;;;;5035725;28;20482;-69
2023/12/13 13:02:23;;;;;;;33.47;13.20;;;;;;;;;;5032189;28;20037;-68
2023/12/13 13:04:48;;;;;;;31.17;13.00;;;;;;;;;;5033919;28;20033;-67
2023/12/13 13:07:14;;;;;;;30.00;12.63;;;;;;;;;;5026546;28;20037;-69
2023/12/13 13:09:39;;;;;;;34.47;14.77;;;;;;;;;;5033836;28;20033;-68
2023/12/13 13:12:05;;;;;;;30.23;12.40;;;;;;;;;;5033087;28;20025;-67
2023/12/13 13:14:30;;;;;;;28.47;11.43;;;;;;;;;;5032226;28;20028;-67
2023/12/13 13:16:56;;;;;;;22.70;10.53;;;;;;;;;;5028747;28;20714;-68
2023/12/13 13:19:21;;;;;;;19.47;8.00;;;;;;;;;;5032948;28;20451;-67
2023/12/13 13:21:46;;;;;;;20.13;8.23;;;;;;;;;;5033854;28;20045;-67
2023/12/13 13:24:11;;;;;;;22.30;8.60;;;;;;;;;;5034121;28;20106;-67
2023/12/13 13:26:37;;;;;;;23.27;8.60;;;;;;;;;;5029658;28;20033;-68
2023/12/13 13:29:02;;;;;;;21.77;8.53;;;;;;;;;;5029312;28;20029;-67
2023/12/13 13:31:28;;;;;;;16.90;7.20;;;;;;;;;;5030664;28;20496;-66
2023/12/13 13:33:53;;;;;;;17.70;7.37;;;;;;;;;;5035681;28;20037;-67
2023/12/13 13:36:20;;;;;;;19.40;7.37;;;;;;;;;;5031175;28;20040;-67
2023/12/13 13:38:45;;;;;;;21.67;7.50;;;;;;;;;;5036454;28;20029;-66
2023/12/13 13:41:11;;;;;;;17.80;6.90;;;;;;;;;;5032402;28;20427;-67
2023/12/13 13:43:36;;;;;;;20.43;7.57;;;;;;;;;;5032672;28;20053;-68
2023/12/13 13:46:01;;;;;;;18.37;7.60;;;;;;;;;;5031984;28;20045;-67
2023/12/13 13:48:26;;;;;;;17.80;7.20;;;;;;;;;;5034151;28;20060;-65
2023/12/13 13:50:52;;;;;;;16.57;7.00;;;;;;;;;;5031762;28;20083;-67
2023/12/13 13:53:17;;;;;;;17.17;7.40;;;;;;;;;;5028718;28;20055;-66
2023/12/13 13:55:44;;;;;;;15.30;6.43;;;;;;;;;;5034385;28;20045;-67
2023/12/13 13:58:10;;;;;;;18.40;6.47;;;;;;;;;;5032865;28;20033;-67
2023/12/13 14:00:35;;;;;;;19.53;7.63;;;;;;;;;;5030223;28;20037;-66
2023/12/13 14:03:00;;;;;;;16.20;6.27;;;;;;;;;;5029538;28;20049;-66
2023/12/13 14:05:26;;;;;;;21.83;7.40;;;;;;;;;;5030228;28;20058;-67
2023/12/13 14:07:51;;;;;;;20.00;7.47;;;;;;;;;;5034603;28;20360;-66
2023/12/13 14:10:16;;;;;;;18.60;7.97;;;;;;;;;;5031780;28;20033;-66